createdAt,value
2023-03-27T10:21:58.494Z,21.48
2023-03-27T10:25:59.137Z,21.52
2023-03-27T10:29:58.461Z,21.49
2023-03-27T10:33:58.000Z,21.65
2023-03-27T10:37:56.997Z,21.99
2023-03-27T10:41:56.561Z,22.22
2023-03-27T10:45:55.383Z,22.38
2023-03-27T10:49:54.972Z,22.50
2023-03-27T10:53:54.072Z,22.62
2023-03-27T10:57:53.472Z,22.60
2023-03-27T11:01:52.800Z,22.67
2023-03-27T11:05:51.973Z,22.72
2023-03-27T11:09:51.037Z,22.82
2023-03-27T11:13:50.513Z,22.90
2023-03-27T11:17:49.570Z,22.92
2023-03-27T11:21:48.680Z,22.85
2023-03-27T11:25:48.065Z,22.82
2023-03-27T11:29:47.480Z,22.85
2023-03-27T11:33:46.486Z,22.96
2023-03-27T11:37:45.986Z,22.98
2023-03-27T11:41:44.850Z,22.96
2023-03-27T11:45:44.496Z,22.91
2023-03-27T11:49:43.516Z,22.93
2023-03-27T11:53:42.568Z,22.91
2023-03-27T11:57:42.044Z,22.93
2023-03-27T12:01:41.025Z,22.94
2023-03-27T12:05:40.528Z,22.97
2023-03-27T12:09:40.048Z,22.98
2023-03-27T12:13:42.404Z,23.03
2023-03-27T12:17:38.541Z,23.16
2023-03-27T12:21:37.505Z,23.24
2023-03-27T12:25:37.033Z,23.27
2023-03-27T12:29:36.533Z,23.34
2023-03-27T12:33:36.003Z,23.39
2023-03-27T12:37:35.983Z,23.45
2023-03-27T12:41:34.506Z,23.51
2023-03-27T12:45:38.813Z,23.55
2023-03-27T12:49:46.345Z,23.52
2023-03-27T12:53:32.531Z,23.62
2023-03-27T12:57:31.480Z,23.65
2023-03-27T13:01:36.303Z,23.53
2023-03-27T13:05:30.035Z,23.52
2023-03-27T13:09:29.546Z,23.55
2023-03-27T13:13:28.276Z,23.57
2023-03-27T13:17:27.570Z,23.63
2023-03-27T13:21:27.027Z,23.62
2023-03-27T13:25:26.047Z,23.67
2023-03-27T13:29:25.572Z,23.68
2023-03-27T13:33:24.556Z,23.64
2023-03-27T13:37:24.027Z,23.70
2023-03-27T13:41:23.532Z,23.67
2023-03-27T13:45:22.533Z,23.71
2023-03-27T13:49:22.078Z,23.74
2023-03-27T13:53:23.171Z,23.77
2023-03-27T15:45:00.771Z,22.56
2023-03-27T18:56:32.091Z,21.30
2023-03-27T19:04:30.923Z,21.26
2023-03-27T19:08:31.377Z,21.26
2023-03-27T19:12:30.803Z,21.24
2023-03-27T19:16:30.244Z,21.22
2023-03-27T19:20:29.661Z,21.20
2023-03-27T19:24:29.137Z,21.19
2023-03-27T19:28:28.588Z,21.19
2023-03-27T19:32:28.067Z,21.18
2023-03-27T19:36:27.494Z,21.15
2023-03-27T19:40:27.004Z,21.16
2023-03-27T19:44:26.432Z,21.14
2023-03-27T19:48:25.927Z,21.12
2023-03-27T19:52:25.379Z,21.12
2023-03-27T19:56:24.872Z,21.11
2023-03-27T20:00:24.314Z,21.10
2023-03-27T20:04:23.791Z,21.09
2023-03-27T20:08:23.264Z,21.07
2023-03-27T20:12:22.745Z,21.07
2023-03-27T20:16:22.243Z,21.06
2023-03-27T20:20:21.714Z,21.04
2023-03-27T20:24:21.212Z,21.03
2023-03-27T20:28:20.749Z,21.01
2023-03-27T20:32:20.229Z,21.00
2023-03-27T20:36:19.800Z,20.99
2023-03-27T20:40:19.259Z,20.99
2023-03-27T20:44:18.879Z,20.98
2023-03-27T20:48:18.376Z,20.96
2023-03-27T20:52:17.855Z,20.95
2023-03-27T20:56:17.393Z,20.95
2023-03-27T21:00:16.960Z,20.93
2023-03-27T21:04:16.490Z,20.92
2023-03-27T21:08:15.985Z,20.91
2023-03-27T21:12:15.551Z,20.89
2023-03-27T21:16:15.253Z,20.89
2023-03-27T21:20:14.688Z,20.88
2023-03-27T21:24:14.297Z,20.87
2023-03-27T21:28:13.808Z,20.87
2023-03-27T21:32:13.427Z,20.85
2023-03-27T21:36:13.123Z,20.84
2023-03-27T21:40:12.565Z,20.85
2023-03-27T21:44:12.032Z,20.84
2023-03-27T21:48:11.643Z,20.84
2023-03-27T21:52:11.164Z,20.83
2023-03-27T21:56:10.817Z,20.81
2023-03-27T22:00:10.352Z,20.80
2023-03-27T22:04:09.943Z,20.80
2023-03-27T22:08:09.536Z,20.78
2023-03-27T22:12:09.131Z,20.78
2023-03-27T22:16:08.971Z,20.76
2023-03-27T22:20:08.365Z,20.75
2023-03-27T22:24:08.010Z,20.76
2023-03-27T22:28:07.557Z,20.74
2023-03-27T22:32:07.162Z,20.74
2023-03-27T22:36:06.928Z,20.73
2023-03-27T22:40:06.420Z,20.73
2023-03-27T22:44:05.989Z,20.72
2023-03-27T22:48:05.789Z,20.72
2023-03-27T22:52:05.285Z,20.72
2023-03-27T22:56:04.890Z,20.72
2023-03-27T23:00:04.463Z,20.71
